Time;durP1;ratioP1;P1;durP2;ratioP2;P2;SDS_P1;SDS_P2;PMS_P1;PMS_P2;Temp;Humidity;BMP_temperature;BMP_pressure;BME280_temperature;BME280_humidity;BME280_pressure;Samples;Min_cycle;Max_cycle;Signal;HPM_P1;HPM_P2
2021/06/01 00:01:47;;;;;;;5.30;4.30;;;15.00;96.50;;;;;;5053424;28;20439;-71
2021/06/01 00:04:13;;;;;;;5.10;4.50;;;15.00;96.80;;;;;;5053602;28;20416;-71
2021/06/01 00:06:40;;;;;;;6.30;4.60;;;14.90;96.90;;;;;;5053240;28;20941;-70
2021/06/01 00:09:08;;;;;;;6.33;4.50;;;14.80;97.00;;;;;;5053174;28;20836;-71
2021/06/01 00:11:35;;;;;;;5.70;3.90;;;14.80;97.20;;;;;;5054229;28;20889;-71
2021/06/01 00:14:00;;;;;;;4.77;4.37;;;14.80;97.30;;;;;;5053111;28;20808;-70
2021/06/01 00:16:27;;;;;;;4.83;4.30;;;14.80;97.30;;;;;;5053612;28;20527;-71
2021/06/01 00:18:53;;;;;;;6.30;4.67;;;14.90;97.40;;;;;;5058035;28;20178;-70
2021/06/01 00:21:19;;;;;;;4.40;4.00;;;14.90;97.20;;;;;;5058663;28;20810;-70
2021/06/01 00:23:44;;;;;;;13.93;4.70;;;14.90;97.30;;;;;;5058533;28;20753;-71
2021/06/01 00:26:11;;;;;;;4.37;3.97;;;15.00;97.40;;;;;;5055194;28;20517;-71
2021/06/01 00:28:38;;;;;;;4.60;4.10;;;15.00;97.00;;;;;;5053140;28;20175;-72
2021/06/01 00:31:05;;;;;;;6.53;4.33;;;15.00;95.90;;;;;;5052531;28;20416;-71
2021/06/01 00:33:32;;;;;;;4.20;3.80;;;15.00;95.70;;;;;;5052867;28;20472;-71
2021/06/01 00:35:58;;;;;;;4.83;3.70;;;14.90;95.70;;;;;;5053223;28;20452;-71
2021/06/01 00:38:23;;;;;;;4.27;3.87;;;14.80;95.80;;;;;;5053420;28;20432;-72
2021/06/01 00:40:49;;;;;;;5.07;4.10;;;14.70;95.80;;;;;;5052036;28;20455;-70
2021/06/01 00:43:14;;;;;;;3.80;3.40;;;14.60;95.40;;;;;;5053052;28;20893;-70
2021/06/01 00:45:41;;;;;;;4.50;4.00;;;14.60;95.50;;;;;;5053096;28;20225;-71
2021/06/01 00:48:06;;;;;;;4.20;3.80;;;14.60;95.50;;;;;;5053413;28;20224;-70
2021/06/01 00:50:32;;;;;;;5.00;4.20;;;14.50;95.20;;;;;;5053071;28;20420;-71
2021/06/01 00:52:58;;;;;;;6.30;3.97;;;14.60;94.90;;;;;;5052597;28;20182;-71
2021/06/01 00:55:24;;;;;;;5.17;4.43;;;14.60;94.90;;;;;;5052616;28;20217;-72
2021/06/01 00:57:50;;;;;;;4.10;3.40;;;14.60;95.10;;;;;;5052825;28;20424;-72
2021/06/01 01:02:55;;;;;;;5.27;3.90;;;14.60;94.50;;;;;;5052750;28;20429;-72
2021/06/01 01:05:24;;;;;;;3.90;3.50;;;14.60;94.40;;;;;;5052540;28;20940;-71
2021/06/01 01:08:07;;;;;;;5.07;3.80;;;14.50;94.50;;;;;;5052667;28;20408;-71
2021/06/01 01:10:36;;;;;;;4.00;3.60;;;14.50;94.40;;;;;;5053030;28;20778;-71
2021/06/01 01:13:05;;;;;;;5.40;3.70;;;14.50;94.60;;;;;;5052380;28;20459;-71
2021/06/01 01:15:32;;;;;;;4.47;4.07;;;14.60;94.70;;;;;;5052778;28;20845;-72
2021/06/01 01:18:03;;;;;;;4.47;4.00;;;14.60;94.50;;;;;;5052670;28;20413;-71
2021/06/01 01:20:45;;;;;;;6.10;4.17;;;14.50;94.40;;;;;;5052902;28;20858;-70
2021/06/01 01:23:14;;;;;;;3.93;3.53;;;14.50;94.60;;;;;;5052493;28;20408;-71
2021/06/01 01:25:48;;;;;;;5.00;4.10;;;14.50;94.70;;;;;;5053078;28;20428;-71
2021/06/01 01:28:32;;;;;;;4.77;3.93;;;14.50;94.70;;;;;;5055396;28;20554;-71
2021/06/01 01:31:06;;;;;;;4.10;3.53;;;14.40;94.30;;;;;;5056568;28;20723;-71
2021/06/01 01:33:34;;;;;;;4.23;3.80;;;14.40;94.20;;;;;;5056167;28;20400;-71
2021/06/01 01:36:03;;;;;;;6.97;4.27;;;14.50;94.20;;;;;;5056460;28;20436;-71
2021/06/01 01:38:29;;;;;;;6.47;3.90;;;14.40;94.20;;;;;;5054890;28;20424;-72
2021/06/01 01:41:00;;;;;;;5.53;4.20;;;14.40;93.90;;;;;;5056261;28;20424;-71
2021/06/01 01:43:30;;;;;;;3.70;3.40;;;14.40;94.20;;;;;;5055877;28;20405;-71
2021/06/01 01:46:05;;;;;;;3.97;3.23;;;14.30;93.90;;;;;;5055868;28;20513;-70
2021/06/01 01:51:19;;;;;;;4.27;3.57;;;14.40;93.90;;;;;;5046735;28;20407;-72
2021/06/01 01:53:53;;;;;;;6.67;4.50;;;14.40;93.90;;;;;;5055850;28;20443;-71
2021/06/01 01:56:22;;;;;;;4.93;4.17;;;14.30;94.00;;;;;;5055830;28;20474;-70
2021/06/01 01:58:49;;;;;;;6.40;4.70;;;14.30;94.20;;;;;;5055595;28;20424;-72
2021/06/01 02:01:16;;;;;;;4.73;4.33;;;14.20;94.30;;;;;;5054246;28;20428;-72
2021/06/01 02:03:42;;;;;;;5.27;4.20;;;14.20;94.40;;;;;;5055740;28;20417;-71
2021/06/01 02:06:09;;;;;;;4.90;4.20;;;14.20;94.40;;;;;;5054269;28;20460;-71
2021/06/01 02:08:38;;;;;;;4.90;4.13;;;14.20;94.60;;;;;;5055477;28;20401;-72
2021/06/01 02:11:05;;;;;;;5.20;4.60;;;14.20;94.60;;;;;;5055853;28;20405;-72
2021/06/01 02:13:32;;;;;;;5.20;4.03;;;14.20;94.80;;;;;;5054913;28;20952;-71
2021/06/01 02:15:58;;;;;;;5.83;4.07;;;14.20;94.90;;;;;;5055914;28;20459;-71
2021/06/01 02:18:23;;;;;;;4.50;4.07;;;14.30;95.10;;;;;;5055331;28;20408;-71
2021/06/01 02:20:54;;;;;;;9.47;4.17;;;14.30;95.30;;;;;;5055600;28;20425;-72
2021/06/01 02:23:50;;;;;;;5.07;4.03;;;14.30;95.40;;;;;;5054957;28;20277;-70
2021/06/01 02:26:20;;;;;;;4.53;4.13;;;14.20;95.50;;;;;;5055202;28;20488;-71
2021/06/01 02:28:52;;;;;;;4.77;4.30;;;14.10;95.70;;;;;;5056292;28;20431;-70
2021/06/01 02:31:24;;;;;;;4.50;3.57;;;14.10;96.10;;;;;;5058626;28;20427;-71
2021/06/01 02:33:51;;;;;;;5.43;4.43;;;14.00;96.40;;;;;;5054535;28;20443;-70
2021/06/01 02:36:17;;;;;;;5.45;4.80;;;13.90;96.70;;;;;;5054048;28;20502;-72
2021/06/01 02:38:44;;;;;;;5.17;4.50;;;14.00;97.00;;;;;;5054610;28;20467;-71
2021/06/01 02:41:11;;;;;;;7.10;4.70;;;14.00;97.30;;;;;;5055471;28;20458;-72
2021/06/01 02:43:36;;;;;;;5.00;4.27;;;14.10;97.40;;;;;;5055136;28;20460;-70
2021/06/01 02:46:04;;;;;;;7.23;4.77;;;14.00;97.80;;;;;;5054384;28;20515;-71
2021/06/01 02:48:30;;;;;;;5.70;4.70;;;13.90;97.80;;;;;;5055168;28;20535;-71
2021/06/01 02:51:14;;;;;;;4.27;3.60;;;14.00;97.80;;;;;;5054448;28;20420;-72
2021/06/01 02:53:41;;;;;;;5.40;4.13;;;13.90;98.00;;;;;;5058198;28;20257;-69
2021/06/01 02:56:06;;;;;;;4.50;4.10;;;13.90;98.00;;;;;;5056097;28;20448;-72
2021/06/01 02:58:32;;;;;;;5.30;4.27;;;13.90;98.00;;;;;;5054754;28;20440;-71
2021/06/01 03:01:03;;;;;;;5.20;4.17;;;14.00;98.00;;;;;;5054633;28;20216;-70
2021/06/01 03:03:29;;;;;;;6.00;4.00;;;14.00;98.10;;;;;;5054388;28;20404;-71
2021/06/01 03:05:54;;;;;;;6.13;4.30;;;14.00;98.10;;;;;;5054346;28;20453;-71
2021/06/01 03:08:28;;;;;;;4.70;4.30;;;14.10;98.00;;;;;;5054509;28;20174;-72
2021/06/01 03:10:55;;;;;;;6.87;4.80;;;14.10;98.00;;;;;;5054261;28;20166;-71
2021/06/01 03:13:21;;;;;;;5.53;4.83;;;14.10;98.00;;;;;;5054591;28;20858;-71
2021/06/01 03:15:47;;;;;;;6.80;4.80;;;14.00;98.00;;;;;;5054289;28;20531;-71
2021/06/01 03:18:13;;;;;;;7.30;4.20;;;14.00;98.20;;;;;;5054309;28;20421;-72
2021/06/01 03:20:39;;;;;;;4.80;4.30;;;14.00;98.20;;;;;;5054460;28;20178;-70
2021/06/01 03:23:05;;;;;;;5.50;4.77;;;14.00;98.20;;;;;;5054245;28;20256;-72
2021/06/01 03:25:30;;;;;;;4.67;4.27;;;14.00;98.20;;;;;;5054599;28;20475;-71
2021/06/01 03:27:56;;;;;;;6.40;4.23;;;14.00;98.40;;;;;;5055703;28;20421;-71
2021/06/01 03:30:21;;;;;;;6.47;4.97;;;14.00;98.40;;;;;;5059606;28;20194;-72
2021/06/01 03:32:47;;;;;;;6.90;4.50;;;14.00;98.60;;;;;;5056676;28;20170;-71
2021/06/01 03:35:12;;;;;;;5.23;4.80;;;14.00;98.70;;;;;;5054297;28;20190;-71
2021/06/01 03:37:38;;;;;;;6.70;5.30;;;14.00;98.70;;;;;;5053866;28;20193;-70
2021/06/01 03:40:05;;;;;;;5.47;4.30;;;13.90;98.90;;;;;;5053404;28;20183;-70
2021/06/01 03:42:30;;;;;;;7.40;4.83;;;13.90;99.00;;;;;;5054148;28;20166;-71
2021/06/01 03:44:56;;;;;;;5.13;4.20;;;13.90;99.10;;;;;;5054221;28;20424;-70
2021/06/01 03:47:21;;;;;;;8.90;4.10;;;13.90;99.10;;;;;;5054050;28;20272;-70
2021/06/01 03:49:47;;;;;;;8.20;5.03;;;13.90;99.20;;;;;;5052952;28;20250;-70
2021/06/01 03:52:12;;;;;;;5.60;4.63;;;13.90;99.30;;;;;;5051398;28;20515;-70
2021/06/01 03:54:39;;;;;;;6.40;4.87;;;13.90;99.40;;;;;;5043834;28;20199;-70
2021/06/01 03:57:11;;;;;;;6.30;4.93;;;13.80;99.40;;;;;;5033806;28;20178;-70
2021/06/01 03:59:37;;;;;;;6.10;5.40;;;13.80;99.40;;;;;;5043691;28;20440;-71
2021/06/01 04:02:03;;;;;;;7.77;4.90;;;13.80;99.40;;;;;;5053341;28;20463;-71
2021/06/01 04:04:29;;;;;;;6.10;4.50;;;13.80;99.30;;;;;;5053234;28;20419;-70
2021/06/01 04:06:54;;;;;;;5.40;4.90;;;13.90;99.20;;;;;;5053817;28;20461;-71
2021/06/01 04:09:20;;;;;;;5.97;5.20;;;13.90;99.10;;;;;;5053253;28;20632;-71
2021/06/01 04:11:46;;;;;;;8.93;5.17;;;13.90;99.10;;;;;;5053333;28;20170;-71
2021/06/01 04:14:11;;;;;;;8.23;5.47;;;13.90;99.20;;;;;;5053339;28;20408;-71
2021/06/01 04:16:37;;;;;;;6.43;4.67;;;13.90;99.30;;;;;;5053628;28;20198;-70
2021/06/01 04:19:03;;;;;;;6.07;5.47;;;13.70;99.60;;;;;;5053399;28;20169;-71
2021/06/01 04:21:29;;;;;;;7.53;5.50;;;13.60;99.90;;;;;;5053136;28;20261;-70
2021/06/01 04:23:55;;;;;;;6.77;5.33;;;13.60;99.90;;;;;;5053181;28;20412;-71
2021/06/01 04:26:21;;;;;;;6.57;5.80;;;13.60;99.90;;;;;;5053474;28;20957;-71
2021/06/01 04:28:46;;;;;;;7.53;6.27;;;13.70;99.90;;;;;;5053374;28;20594;-71
2021/06/01 04:31:12;;;;;;;8.93;5.60;;;13.70;99.90;;;;;;5053213;28;20227;-71
2021/06/01 04:33:37;;;;;;;6.60;5.90;;;13.70;99.90;;;;;;5052903;28;20562;-71
2021/06/01 04:36:03;;;;;;;8.30;6.70;;;13.70;99.90;;;;;;5054401;28;20635;-72
2021/06/01 04:38:29;;;;;;;7.90;6.07;;;13.70;99.90;;;;;;5053111;28;20166;-72
2021/06/01 04:40:54;;;;;;;6.17;5.57;;;13.60;99.90;;;;;;5054338;28;20486;-71
2021/06/01 04:43:20;;;;;;;8.50;5.80;;;13.60;99.90;;;;;;5053915;28;20531;-71
2021/06/01 04:45:45;;;;;;;6.67;5.67;;;13.60;99.90;;;;;;5052642;28;20280;-70
2021/06/01 04:48:11;;;;;;;7.47;6.40;;;13.60;99.90;;;;;;5053015;28;20166;-71
2021/06/01 04:50:37;;;;;;;7.03;6.23;;;13.60;99.90;;;;;;5051415;28;20194;-70
2021/06/01 04:53:02;;;;;;;6.60;5.80;;;13.70;99.90;;;;;;5056643;28;20174;-69
2021/06/01 04:55:28;;;;;;;7.53;5.23;;;13.70;99.90;;;;;;5053661;28;20215;-71
2021/06/01 04:57:53;;;;;;;9.30;6.30;;;13.80;99.90;;;;;;5048695;28;20288;-70
2021/06/01 05:00:19;;;;;;;6.20;5.60;;;13.90;99.90;;;;;;5036769;28;20174;-70
2021/06/01 05:02:45;;;;;;;6.70;6.00;;;14.00;99.90;;;;;;5045151;28;20694;-70
2021/06/01 05:05:10;;;;;;;7.27;6.30;;;14.00;99.90;;;;;;5062808;28;20197;-70
2021/06/01 05:07:36;;;;;;;7.00;6.30;;;14.10;99.90;;;;;;5058266;28;20205;-70
2021/06/01 05:10:03;;;;;;;10.67;7.53;;;14.10;99.90;;;;;;5046154;28;20172;-70
2021/06/01 05:12:29;;;;;;;8.80;6.40;;;14.10;99.90;;;;;;5055942;28;20178;-71
2021/06/01 05:14:56;;;;;;;8.20;6.27;;;14.20;99.90;;;;;;5054323;28;20508;-70
2021/06/01 05:17:22;;;;;;;8.40;6.23;;;14.20;99.90;;;;;;5049017;28;20449;-70
2021/06/01 05:19:47;;;;;;;8.83;6.70;;;14.30;99.90;;;;;;5055815;28;20444;-70
2021/06/01 05:22:13;;;;;;;8.17;6.40;;;14.30;99.90;;;;;;5058706;28;20918;-70
2021/06/01 05:24:39;;;;;;;13.50;7.47;;;14.40;99.90;;;;;;5056785;28;20201;-71
2021/06/01 05:27:06;;;;;;;8.30;6.57;;;14.40;99.90;;;;;;5065240;28;20198;-70
2021/06/01 05:29:34;;;;;;;11.65;7.60;;;14.50;99.90;;;;;;5058289;28;20523;-70
2021/06/01 05:32:21;;;;;;;7.50;6.60;;;14.60;99.90;;;;;;5057793;28;20321;-71
2021/06/01 05:34:50;;;;;;;7.50;6.80;;;14.70;99.90;;;;;;5062637;28;20436;-70
2021/06/01 05:37:16;;;;;;;9.13;6.07;;;14.80;99.90;;;;;;5056433;28;20412;-71
2021/06/01 05:39:41;;;;;;;8.90;6.47;;;14.90;99.30;;;;;;5054558;28;20626;-71
2021/06/01 05:42:07;;;;;;;8.00;6.57;;;15.00;99.00;;;;;;5063478;28;20855;-69
2021/06/01 05:44:33;;;;;;;8.00;6.27;;;15.00;99.10;;;;;;5063346;28;20205;-70
2021/06/01 05:46:59;;;;;;;6.73;5.93;;;15.10;99.10;;;;;;5075282;28;20229;-73
2021/06/01 05:49:24;;;;;;;10.27;6.70;;;15.20;98.70;;;;;;5058266;28;20428;-72
2021/06/01 05:51:50;;;;;;;9.63;5.47;;;15.30;98.40;;;;;;5056232;28;20186;-72
2021/06/01 05:54:16;;;;;;;6.20;5.30;;;15.40;98.10;;;;;;5051927;28;20630;-71
2021/06/01 05:56:42;;;;;;;6.60;6.00;;;15.50;97.40;;;;;;5045402;28;20178;-72
2021/06/01 05:59:07;;;;;;;7.20;5.27;;;15.50;98.00;;;;;;5055173;28;20808;-71
2021/06/01 06:01:33;;;;;;;6.55;5.60;;;15.70;97.70;;;;;;5051216;28;20425;-71
2021/06/01 06:03:59;;;;;;;6.83;6.13;;;15.70;97.70;;;;;;5040568;28;20288;-71
2021/06/01 06:06:24;;;;;;;5.22;4.72;;;15.80;97.70;;;;;;5058785;28;20434;-70
2021/06/01 06:08:50;;;;;;;6.87;5.50;;;15.90;97.50;;;;;;5049230;28;20178;-72
2021/06/01 06:11:16;;;;;;;6.13;5.20;;;16.00;97.00;;;;;;5047640;28;20182;-71
2021/06/01 06:13:41;;;;;;;5.67;4.87;;;16.10;96.70;;;;;;5050760;28;20178;-71
2021/06/01 06:16:07;;;;;;;7.90;5.07;;;16.20;96.60;;;;;;5053298;28;20237;-71
2021/06/01 06:18:40;;;;;;;5.70;4.73;;;16.20;96.50;;;;;;5055788;28;20194;-71
2021/06/01 06:21:06;;;;;;;5.33;4.80;;;16.30;95.80;;;;;;5071545;28;20197;-70
2021/06/01 06:23:40;;;;;;;6.77;4.80;;;16.50;95.20;;;;;;5058570;28;20436;-72
2021/06/01 06:26:06;;;;;;;7.40;5.13;;;16.60;94.90;;;;;;5064111;28;20979;-72
2021/06/01 06:28:31;;;;;;;4.67;3.80;;;16.70;95.00;;;;;;5071371;28;20455;-70
2021/06/01 06:30:57;;;;;;;8.60;4.70;;;16.80;94.40;;;;;;5070538;28;20189;-72
2021/06/01 06:33:22;;;;;;;8.77;5.10;;;16.80;94.10;;;;;;5065180;28;20200;-73
2021/06/01 06:35:50;;;;;;;8.20;5.20;;;16.90;94.20;;;;;;5071201;28;20209;-72
2021/06/01 06:38:16;;;;;;;5.80;4.10;;;17.00;93.10;;;;;;5071596;28;20181;-72
2021/06/01 06:40:44;;;;;;;6.40;5.40;;;17.10;92.90;;;;;;5070269;28;20427;-72
2021/06/01 06:43:10;;;;;;;5.23;4.00;;;17.20;92.60;;;;;;5064984;28;20443;-72
2021/06/01 06:45:36;;;;;;;5.23;3.73;;;17.40;92.10;;;;;;5061314;28;20459;-72
2021/06/01 06:48:05;;;;;;;4.50;3.90;;;17.50;91.60;;;;;;5054582;28;20668;-72
2021/06/01 06:50:32;;;;;;;3.83;3.40;;;17.60;91.60;;;;;;5062522;28;20520;-72
2021/06/01 06:53:00;;;;;;;5.80;3.70;;;17.70;91.20;;;;;;5047762;28;20772;-73
2021/06/01 06:55:25;;;;;;;7.90;3.63;;;17.80;90.90;;;;;;5057169;28;20455;-72
2021/06/01 06:57:51;;;;;;;3.53;3.33;;;17.90;90.70;;;;;;5063050;28;20783;-71
2021/06/01 07:00:19;;;;;;;5.40;4.10;;;18.10;90.60;;;;;;5067805;28;20275;-72
2021/06/01 07:02:45;;;;;;;5.00;4.07;;;18.20;90.10;;;;;;5080847;28;20264;-73
2021/06/01 07:05:13;;;;;;;3.60;3.30;;;18.30;88.80;;;;;;5080185;28;20463;-72
2021/06/01 07:07:40;;;;;;;3.30;3.00;;;18.40;88.80;;;;;;5076851;28;20499;-71
2021/06/01 07:10:09;;;;;;;3.53;3.27;;;18.50;88.10;;;;;;5080683;28;20411;-72
2021/06/01 07:12:35;;;;;;;4.23;3.63;;;18.60;87.60;;;;;;5088229;28;20423;-73
2021/06/01 07:15:12;;;;;;;3.47;3.17;;;18.70;87.40;;;;;;5086233;28;20479;-72
2021/06/01 07:17:41;;;;;;;4.30;3.90;;;18.80;86.20;;;;;;5077692;28;20216;-71
2021/06/01 07:20:08;;;;;;;6.30;4.55;;;18.90;85.70;;;;;;5085571;28;20445;-72
2021/06/01 07:22:33;;;;;;;5.33;4.20;;;19.00;84.80;;;;;;5079660;28;20177;-72
2021/06/01 07:24:59;;;;;;;3.67;3.43;;;19.10;84.20;;;;;;5076368;28;20473;-74
2021/06/01 07:27:25;;;;;;;3.63;3.33;;;19.20;83.60;;;;;;5074884;28;20182;-72
2021/06/01 07:29:52;;;;;;;3.90;3.40;;;19.30;82.00;;;;;;5081584;28;20264;-73
2021/06/01 07:32:18;;;;;;;5.70;3.47;;;19.40;78.60;;;;;;5073565;28;20424;-73
2021/06/01 07:34:43;;;;;;;6.00;3.60;;;19.50;78.00;;;;;;5066142;28;20925;-71
2021/06/01 07:37:09;;;;;;;3.77;3.30;;;19.60;78.20;;;;;;5046866;28;20444;-72
2021/06/01 07:39:34;;;;;;;3.07;2.87;;;19.70;77.60;;;;;;5045984;28;20232;-72
2021/06/01 07:42:00;;;;;;;4.30;3.13;;;19.80;76.30;;;;;;5050624;28;20178;-73
2021/06/01 07:44:26;;;;;;;5.00;3.30;;;19.90;74.90;;;;;;5057790;28;20186;-72
2021/06/01 07:46:51;;;;;;;3.47;3.17;;;20.00;74.70;;;;;;5044306;28;20223;-71
2021/06/01 07:49:17;;;;;;;4.70;4.23;;;20.10;72.00;;;;;;5054976;28;20257;-73
2021/06/01 07:51:43;;;;;;;4.73;3.40;;;20.20;72.00;;;;;;5071248;28;20203;-72
2021/06/01 07:54:09;;;;;;;4.30;3.90;;;20.30;70.00;;;;;;5071616;28;20408;-73
2021/06/01 07:56:36;;;;;;;3.50;3.30;;;20.30;70.00;;;;;;5073043;28;20511;-72
2021/06/01 07:59:02;;;;;;;4.50;3.30;;;20.50;70.10;;;;;;5056634;28;20186;-73
2021/06/01 08:01:27;;;;;;;3.40;3.10;;;20.60;67.30;;;;;;5053579;28;20514;-71
2021/06/01 08:03:53;;;;;;;3.40;3.20;;;20.70;66.60;;;;;;5053791;28;20232;-72
2021/06/01 08:06:18;;;;;;;3.67;3.33;;;20.80;66.80;;;;;;5053708;28;20343;-72
2021/06/01 08:08:44;;;;;;;3.60;2.83;;;20.90;66.30;;;;;;5055125;28;20185;-71
2021/06/01 08:11:10;;;;;;;2.90;2.70;;;20.90;65.50;;;;;;5053730;28;20186;-72
2021/06/01 08:13:35;;;;;;;3.53;3.23;;;21.00;64.40;;;;;;5053818;28;20265;-72
2021/06/01 08:16:03;;;;;;;3.50;3.20;;;21.20;63.50;;;;;;5053202;28;20240;-73
2021/06/01 08:18:32;;;;;;;3.60;3.30;;;21.20;62.80;;;;;;5054260;28;20224;-71
2021/06/01 08:23:24;;;;;;;4.40;3.63;;;21.40;64.50;;;;;;5052219;28;20450;-72
2021/06/01 08:25:50;;;;;;;4.37;3.77;;;21.50;65.50;;;;;;5050396;28;20486;-72
2021/06/01 08:28:15;;;;;;;3.03;2.77;;;21.60;65.60;;;;;;5054187;28;20174;-72
2021/06/01 08:30:41;;;;;;;4.53;3.03;;;21.60;63.70;;;;;;5053560;28;20220;-72
2021/06/01 08:33:07;;;;;;;4.00;3.07;;;21.60;61.00;;;;;;5053424;28;20194;-72
2021/06/01 08:35:32;;;;;;;4.73;3.50;;;21.70;61.80;;;;;;5053957;28;20588;-71
2021/06/01 08:37:58;;;;;;;4.00;3.40;;;21.80;62.10;;;;;;5058049;28;20178;-72
2021/06/01 08:40:24;;;;;;;3.30;3.10;;;21.90;61.90;;;;;;5057879;28;20612;-71
2021/06/01 08:42:51;;;;;;;4.00;3.17;;;22.00;61.70;;;;;;5058096;28;20537;-71
2021/06/01 08:45:17;;;;;;;3.30;3.00;;;22.10;60.80;;;;;;5058180;28;20849;-71
2021/06/01 08:47:43;;;;;;;3.57;3.27;;;22.10;60.40;;;;;;5057670;28;20405;-71
2021/06/01 08:50:11;;;;;;;3.20;3.00;;;22.10;61.40;;;;;;5070649;28;20209;-71
2021/06/01 08:52:37;;;;;;;6.47;3.57;;;22.20;61.40;;;;;;5059162;28;20804;-71
2021/06/01 08:55:05;;;;;;;4.00;3.60;;;22.20;60.20;;;;;;5056734;28;20436;-73
2021/06/01 08:57:34;;;;;;;3.53;3.23;;;22.30;59.50;;;;;;5058268;28;20798;-70
2021/06/01 08:59:59;;;;;;;3.57;3.27;;;22.30;58.60;;;;;;5059645;28;20428;-71
2021/06/01 09:02:25;;;;;;;3.80;3.50;;;22.40;58.00;;;;;;5055820;28;20427;-73
2021/06/01 09:04:59;;;;;;;3.60;3.30;;;22.40;57.40;;;;;;5056264;28;20536;-72
2021/06/01 09:10:17;;;;;;;5.83;3.13;;;22.50;57.00;;;;;;5057594;28;20401;-72
2021/06/01 09:21:45;;;;;;;4.33;3.23;;;22.40;56.00;;;;;;5058700;28;20464;-72
2021/06/01 09:24:11;;;;;;;3.17;2.97;;;22.40;56.70;;;;;;5061080;28;20428;-71
2021/06/01 09:27:00;;;;;;;3.37;3.07;;;22.60;57.00;;;;;;5058413;28;20467;-72
2021/06/01 09:29:29;;;;;;;4.23;3.60;;;22.70;56.20;;;;;;5057895;28;20401;-72
2021/06/01 09:32:18;;;;;;;3.90;3.30;;;22.80;56.40;;;;;;5057311;28;20404;-72
2021/06/01 09:34:52;;;;;;;3.33;3.03;;;22.80;56.00;;;;;;5056513;28;20801;-72
2021/06/01 09:37:18;;;;;;;3.20;2.90;;;22.80;55.90;;;;;;5057382;28;20419;-71
2021/06/01 09:39:44;;;;;;;4.90;3.70;;;22.90;56.20;;;;;;5056884;28;20432;-73
2021/06/01 09:42:30;;;;;;;8.57;4.00;;;22.90;55.90;;;;;;5055772;28;20174;-73
2021/06/01 09:45:12;;;;;;;3.93;3.53;;;22.90;54.80;;;;;;5054900;28;20570;-73
2021/06/01 09:47:45;;;;;;;2.83;2.63;;;22.90;53.60;;;;;;5055287;28;20420;-73
2021/06/01 09:50:22;;;;;;;3.60;3.37;;;22.90;54.00;;;;;;5069334;28;20412;-72
2021/06/01 09:52:50;;;;;;;3.27;3.07;;;22.80;54.00;;;;;;5075434;28;20412;-72
2021/06/01 09:55:25;;;;;;;3.47;3.17;;;22.80;54.40;;;;;;5073696;28;20484;-72
2021/06/01 09:57:51;;;;;;;3.40;3.20;;;22.80;53.90;;;;;;5057013;28;20389;-72
2021/06/01 10:00:24;;;;;;;3.53;3.23;;;22.90;54.20;;;;;;5055388;28;20504;-72
2021/06/01 10:03:20;;;;;;;3.90;3.60;;;23.00;54.50;;;;;;5056815;28;20393;-73
2021/06/01 10:05:53;;;;;;;5.00;3.40;;;23.10;54.10;;;;;;5055748;28;20457;-72
2021/06/01 10:08:26;;;;;;;3.47;3.17;;;23.10;53.40;;;;;;5036055;28;20875;-73
2021/06/01 10:11:10;;;;;;;3.37;3.07;;;23.20;53.70;;;;;;5035727;28;20414;-72
2021/06/01 10:13:38;;;;;;;3.57;3.10;;;23.30;52.90;;;;;;5036783;28;20467;-72
2021/06/01 10:16:06;;;;;;;3.40;3.10;;;23.30;52.20;;;;;;5035044;28;20445;-72
2021/06/01 10:18:32;;;;;;;4.10;3.80;;;23.20;52.40;;;;;;5055179;28;20503;-72
2021/06/01 10:21:00;;;;;;;3.60;3.30;;;23.20;52.50;;;;;;5054972;28;20933;-72
2021/06/01 10:23:35;;;;;;;3.50;3.30;;;23.20;52.70;;;;;;5055511;28;20194;-72
2021/06/01 10:26:02;;;;;;;3.00;2.70;;;23.20;52.20;;;;;;5055526;28;20462;-72
2021/06/01 10:28:33;;;;;;;3.47;3.17;;;23.20;52.70;;;;;;5055896;28;20452;-72
2021/06/01 10:31:00;;;;;;;3.33;2.53;;;23.10;52.20;;;;;;5056072;28;20470;-72
2021/06/01 10:33:34;;;;;;;5.10;3.60;;;23.30;52.30;;;;;;5055634;28;20412;-72
2021/06/01 10:51:00;;;;;;;3.60;3.30;;;23.30;51.40;;;;;;5075291;28;20411;-71
2021/06/01 10:53:36;;;;;;;3.93;3.27;;;23.30;51.80;;;;;;5075837;28;20404;-74
2021/06/01 10:56:04;;;;;;;4.10;3.63;;;23.30;51.90;;;;;;5075573;28;20422;-73
2021/06/01 10:58:38;;;;;;;3.97;3.60;;;23.40;52.30;;;;;;5058354;28;20957;-72
2021/06/01 11:04:34;;;;;;;3.40;3.10;;;23.40;52.20;;;;;;5054796;28;20834;-72
2021/06/01 11:09:34;;;;;;;3.63;3.33;;;23.50;51.80;;;;;;5055049;28;20408;-71
2021/06/01 11:12:12;;;;;;;3.40;3.10;;;23.50;51.80;;;;;;5054146;28;20423;-71
2021/06/01 11:14:38;;;;;;;3.80;3.50;;;23.50;51.80;;;;;;5054869;28;20184;-72
2021/06/01 11:17:04;;;;;;;4.23;3.30;;;23.40;51.60;;;;;;5055138;28;20404;-72
2021/06/01 11:19:55;;;;;;;5.03;3.47;;;23.30;51.90;;;;;;5055109;28;20873;-72
2021/06/01 11:22:42;;;;;;;3.63;3.33;;;23.20;52.30;;;;;;5052703;28;20605;-71
2021/06/01 11:33:39;;;;;;;3.60;3.30;;;23.20;52.50;;;;;;5034420;28;20436;-72
2021/06/01 11:36:14;;;;;;;3.67;3.37;;;23.30;52.70;;;;;;5034185;28;20445;-72
2021/06/01 11:38:54;;;;;;;3.50;3.20;;;23.30;52.90;;;;;;5032957;28;20421;-72
2021/06/01 11:44:25;;;;;;;3.37;3.10;;;23.40;50.80;;;;;;5054170;28;20916;-72
2021/06/01 11:52:00;;;;;;;3.83;3.53;;;23.40;51.20;;;;;;5073919;28;20205;-71
2021/06/01 11:54:26;;;;;;;3.50;3.20;;;23.40;51.80;;;;;;5055534;28;20416;-71
2021/06/01 12:18:36;;;;;;;4.47;3.40;;;23.30;51.70;;;;;;5058700;28;20866;-70
2021/06/01 12:20:59;;;;;;;3.53;3.23;;;23.30;51.30;;;;;;5055987;28;20932;-71
2021/06/01 12:23:40;;;;;;;3.90;3.10;;;23.30;51.80;;;;;;5056271;28;20488;-72
2021/06/01 12:32:01;;;;;;;3.90;3.50;;;23.40;51.50;;;;;;5053458;28;20396;-71
2021/06/01 13:08:50;;;;;;;3.27;2.50;;;24.10;47.10;;;;;;5053209;28;20423;-72
2021/06/01 13:20:40;;;;;;;3.50;3.20;;;24.50;49.90;;;;;;5052167;28;20434;-72
2021/06/01 13:37:12;;;;;;;3.80;3.50;;;25.20;52.80;;;;;;5057312;28;20396;-71
2021/06/01 13:50:53;;;;;;;5.87;4.20;;;25.80;52.40;;;;;;5075778;28;20428;-72
2021/06/01 13:56:02;;;;;;;4.50;4.03;;;25.80;53.00;;;;;;5063234;28;20496;-74
2021/06/01 14:28:58;;;;;;;6.03;3.90;;;27.20;51.00;;;;;;5035929;28;20954;-72
2021/06/01 14:36:47;;;;;;;5.90;3.40;;;27.20;50.20;;;;;;5055840;28;20432;-71
2021/06/01 14:56:17;;;;;;;15.63;5.03;;;28.30;48.20;;;;;;5068385;28;20797;-73
2021/06/01 15:09:36;;;;;;;3.53;3.22;;;29.30;46.30;;;;;;5055310;28;20410;-70
2021/06/01 15:23:28;;;;;;;6.03;3.07;;;29.20;44.70;;;;;;5054515;28;20454;-70
2021/06/01 15:47:57;;;;;;;5.80;3.00;;;28.90;45.20;;;;;;5050849;28;20407;-71
2021/06/01 15:50:33;;;;;;;3.23;2.93;;;29.00;45.00;;;;;;5084489;28;20831;-72
2021/06/01 16:15:38;;;;;;;3.03;2.80;;;29.20;44.60;;;;;;5053553;28;20851;-71
2021/06/01 16:23:38;;;;;;;3.20;2.90;;;28.40;45.50;;;;;;5053314;28;20966;-72
2021/06/01 16:42:59;;;;;;;3.80;3.40;;;27.10;47.00;;;;;;5053994;28;20407;-72
2021/06/01 17:04:53;;;;;;;4.03;2.97;;;25.80;49.20;;;;;;5057092;28;20478;-72
2021/06/01 17:12:50;;;;;;;2.90;2.60;;;25.50;49.50;;;;;;5056858;28;20388;-73
2021/06/01 17:15:18;;;;;;;3.70;3.40;;;25.50;49.30;;;;;;5056412;28;20945;-72
2021/06/01 17:17:51;;;;;;;4.83;3.10;;;25.50;49.50;;;;;;5057308;28;20447;-72
2021/06/01 17:36:52;;;;;;;3.37;3.07;;;24.90;50.40;;;;;;5056850;28;20200;-72
2021/06/01 17:39:18;;;;;;;3.63;3.20;;;24.80;50.70;;;;;;5054864;28;20917;-71
2021/06/01 17:41:43;;;;;;;4.90;2.70;;;24.80;50.70;;;;;;5056377;28;20420;-71
2021/06/01 17:44:12;;;;;;;5.20;3.30;;;24.80;50.90;;;;;;5057645;28;20183;-73
2021/06/01 17:46:41;;;;;;;3.07;2.77;;;24.70;50.90;;;;;;5056338;28;20201;-72
2021/06/01 17:49:08;;;;;;;6.23;2.80;;;24.70;51.10;;;;;;5060453;28;20416;-72
2021/06/01 17:51:35;;;;;;;3.90;3.07;;;24.70;51.50;;;;;;5070965;28;20498;-72
2021/06/01 17:54:01;;;;;;;3.50;3.03;;;24.60;51.20;;;;;;5064886;28;20778;-73
2021/06/01 17:56:29;;;;;;;4.57;3.20;;;24.60;51.30;;;;;;5056989;28;21071;-73
2021/06/01 17:58:56;;;;;;;4.10;2.80;;;24.50;51.30;;;;;;5056914;28;20416;-72
2021/06/01 18:01:25;;;;;;;4.27;3.03;;;24.50;51.60;;;;;;5056442;28;20405;-71
2021/06/01 18:06:25;;;;;;;4.70;3.40;;;24.40;51.80;;;;;;5056293;28;20444;-72
2021/06/01 18:29:22;;;;;;;2.93;2.63;;;24.20;52.20;;;;;;5055485;28;20180;-72
2021/06/01 18:36:56;;;;;;;4.10;2.43;;;23.70;53.10;;;;;;5055702;28;20611;-72
2021/06/01 18:42:59;;;;;;;3.30;2.67;;;23.50;52.70;;;;;;5055651;28;20212;-72
2021/06/01 19:25:35;;;;;;;5.80;3.70;;;22.40;54.30;;;;;;5057122;28;20433;-72
2021/06/01 19:50:00;;;;;;;6.93;4.93;;;21.70;57.20;;;;;;5062180;28;20446;-73
2021/06/01 19:52:29;;;;;;;5.53;5.03;;;21.60;57.50;;;;;;5053854;28;20416;-74
2021/06/01 19:54:57;;;;;;;5.90;4.73;;;21.50;57.70;;;;;;5040690;28;20496;-71
2021/06/01 19:57:24;;;;;;;4.40;4.00;;;21.40;58.00;;;;;;5043559;28;20546;-71
2021/06/01 19:59:51;;;;;;;4.70;4.30;;;21.40;58.30;;;;;;5036799;28;20437;-73
2021/06/01 20:02:22;;;;;;;4.60;4.20;;;21.30;58.60;;;;;;5042941;28;20428;-73
2021/06/01 20:05:15;;;;;;;4.22;3.50;;;21.20;58.80;;;;;;5052804;28;20494;-72